createdAt,value
2022-11-29T00:03:20.922Z,95997.72
2022-11-29T00:07:33.292Z,96005.72
2022-11-29T00:12:03.967Z,96001.22
2022-11-29T00:16:16.600Z,96006.00
2022-11-29T00:20:28.914Z,95994.38
2022-11-29T00:24:43.207Z,95997.69
2022-11-29T00:28:55.711Z,96001.22
2022-11-29T00:33:08.063Z,96003.50
2022-11-29T00:37:21.177Z,95993.00
2022-11-29T00:41:33.707Z,95999.66
2022-11-29T00:45:46.063Z,95986.31
2022-11-29T00:49:58.362Z,95983.22
2022-11-29T00:54:10.615Z,95990.16
2022-11-29T00:58:23.743Z,95981.59
2022-11-29T01:02:36.095Z,95989.66
2022-11-29T01:06:51.938Z,95987.72
2022-11-29T01:11:20.687Z,95990.25
2022-11-29T01:15:33.297Z,95985.63
2022-11-29T01:19:50.637Z,95998.47
2022-11-29T01:24:03.379Z,95990.34
2022-11-29T01:28:15.654Z,95989.03
2022-11-29T01:32:28.463Z,95985.13
2022-11-29T01:36:41.216Z,95991.25
2022-11-29T01:41:02.588Z,95997.16
2022-11-29T01:45:23.626Z,95983.22
2022-11-29T01:49:43.662Z,96005.91
2022-11-29T01:53:56.667Z,95992.06
2022-11-29T01:58:10.080Z,95984.00
2022-11-29T02:02:33.414Z,95985.31
2022-11-29T02:06:47.257Z,95985.84
2022-11-29T02:11:29.793Z,95992.09
2022-11-29T02:15:54.756Z,95984.16
2022-11-29T02:20:40.855Z,95987.44
2022-11-29T02:25:22.772Z,95976.25
2022-11-29T02:30:05.757Z,95976.47
2022-11-29T02:34:31.686Z,95978.88
2022-11-29T02:39:28.802Z,95981.75
2022-11-29T02:44:03.890Z,95987.00
2022-11-29T02:48:42.105Z,95989.75
2022-11-29T02:53:06.924Z,95981.44
2022-11-29T02:57:44.054Z,95984.81
2022-11-29T03:02:12.812Z,95991.06
2022-11-29T03:06:36.523Z,95994.69
2022-11-29T03:11:07.521Z,95992.91
2022-11-29T03:15:36.995Z,95996.88
2022-11-29T03:20:14.771Z,95999.69
2022-11-29T03:24:42.797Z,96009.75
2022-11-29T03:29:24.106Z,96015.91
2022-11-29T03:34:21.462Z,96021.50
2022-11-29T03:38:42.813Z,96015.25
2022-11-29T03:43:06.719Z,96022.63
2022-11-29T03:47:40.831Z,96018.72
2022-11-29T03:52:14.971Z,96015.66
2022-11-29T03:56:40.587Z,96015.53
2022-11-29T04:01:01.037Z,96005.88
2022-11-29T04:05:22.418Z,96012.31
2022-11-29T04:09:37.446Z,96011.09
2022-11-29T04:14:11.589Z,96007.84
2022-11-29T04:19:08.494Z,96001.22
2022-11-29T04:23:39.606Z,96003.38
2022-11-29T04:28:17.167Z,96010.38
2022-11-29T04:32:51.329Z,96007.81
2022-11-29T04:37:21.819Z,96017.69
2022-11-29T04:41:59.987Z,96015.63
2022-11-29T04:46:29.983Z,96006.41
2022-11-29T04:50:53.959Z,96017.41
2022-11-29T04:55:31.008Z,96013.97
2022-11-29T05:00:10.700Z,96020.28
2022-11-29T05:04:30.985Z,96025.22
2022-11-29T05:08:56.820Z,96024.69
2022-11-29T05:13:28.806Z,96021.84
2022-11-29T05:18:06.035Z,96028.31
2022-11-29T05:22:31.991Z,96027.97
2022-11-29T05:27:17.190Z,96033.78
2022-11-29T05:31:49.862Z,96038.28
2022-11-29T05:36:38.977Z,96035.19
2022-11-29T05:41:01.551Z,96034.22
2022-11-29T05:45:18.979Z,96032.66
2022-11-29T05:49:44.187Z,96042.44
2022-11-29T05:54:19.217Z,96036.53
2022-11-29T05:58:55.198Z,96045.19
2022-11-29T06:03:24.446Z,96049.81
2022-11-29T06:07:55.333Z,96051.25
2022-11-29T06:12:19.627Z,96044.34
2022-11-29T06:16:54.298Z,96057.91
2022-11-29T06:21:29.213Z,96052.78
2022-11-29T06:26:03.648Z,96067.22
2022-11-29T06:30:23.902Z,96056.72
2022-11-29T06:34:59.970Z,96071.59
2022-11-29T06:39:12.564Z,96066.66
2022-11-29T06:43:28.418Z,96072.28
2022-11-29T06:47:53.453Z,96069.84
2022-11-29T06:52:34.878Z,96076.50
2022-11-29T06:57:03.805Z,96078.72
2022-11-29T07:01:28.137Z,96079.38
2022-11-29T07:05:41.629Z,96086.38
2022-11-29T07:10:00.318Z,96080.47
2022-11-29T07:14:13.431Z,96084.63
2022-11-29T07:18:45.384Z,96093.19
2022-11-29T07:23:14.039Z,96096.75
2022-11-29T07:27:49.480Z,96099.28
2022-11-29T07:32:29.675Z,96102.34
2022-11-29T07:36:59.728Z,96094.34
2022-11-29T07:41:18.319Z,96098.22
2022-11-29T07:45:34.183Z,96099.88
2022-11-29T07:49:46.474Z,96106.59
2022-11-29T07:53:58.869Z,96100.00
2022-11-29T07:58:15.683Z,96102.88
2022-11-29T08:02:29.644Z,96107.78
2022-11-29T08:06:41.982Z,96101.19
2022-11-29T08:10:54.337Z,96111.56
2022-11-29T08:15:07.372Z,96105.63
2022-11-29T08:19:19.645Z,96111.50
2022-11-29T08:23:31.934Z,96112.38
2022-11-29T08:27:44.178Z,96120.16
2022-11-29T08:31:56.634Z,96120.41
2022-11-29T08:36:14.403Z,96114.38
2022-11-29T08:40:26.787Z,96122.50
2022-11-29T08:44:39.049Z,96117.88
2022-11-29T08:48:51.456Z,96114.41
2022-11-29T08:53:22.019Z,96120.63
2022-11-29T08:57:41.577Z,96125.00
2022-11-29T09:01:53.954Z,96122.28
2022-11-29T09:06:12.699Z,96139.50
2022-11-29T09:10:25.167Z,96135.97
2022-11-29T09:14:37.458Z,96136.63
2022-11-29T09:18:52.173Z,96140.03
2022-11-29T09:23:04.885Z,96138.72
2022-11-29T09:27:17.205Z,96145.28
2022-11-29T09:31:30.682Z,96146.59
2022-11-29T09:35:43.343Z,96149.44
2022-11-29T09:39:55.678Z,96152.28
2022-11-29T09:44:07.891Z,96147.63
2022-11-29T09:48:26.656Z,96143.81
2022-11-29T09:52:50.725Z,96153.69
2022-11-29T09:57:10.518Z,96146.47
2022-11-29T10:01:35.048Z,96155.63
2022-11-29T10:06:00.708Z,96145.69
2022-11-29T10:10:31.443Z,96156.53
2022-11-29T10:14:57.204Z,96158.47
2022-11-29T10:19:50.407Z,96150.81
2022-11-29T10:24:07.834Z,96151.81
2022-11-29T10:28:23.046Z,96147.09
2022-11-29T10:32:35.316Z,96144.97
2022-11-29T10:36:51.406Z,96142.38
2022-11-29T10:41:09.830Z,96145.38
2022-11-29T10:45:39.827Z,96138.72
2022-11-29T10:49:52.260Z,96135.13
2022-11-29T10:54:30.450Z,96136.63
2022-11-29T10:59:05.238Z,96134.94
2022-11-29T11:03:48.954Z,96147.56
2022-11-29T11:08:06.254Z,96142.72
2022-11-29T11:12:24.743Z,96141.13
2022-11-29T11:16:37.759Z,96141.63
2022-11-29T11:20:55.675Z,96146.25
2022-11-29T11:25:28.195Z,96146.91
2022-11-29T11:29:45.563Z,96143.78
2022-11-29T11:34:18.232Z,96148.06
2022-11-29T11:38:31.056Z,96148.28
2022-11-29T11:42:43.606Z,96141.47
2022-11-29T11:46:56.543Z,96149.72
2022-11-29T11:51:21.180Z,96146.28
2022-11-29T11:55:36.988Z,96159.91
2022-11-29T11:59:51.058Z,96156.22
2022-11-29T12:04:18.073Z,96147.34
2022-11-29T12:08:30.613Z,96153.31
2022-11-29T12:12:45.201Z,96157.91
2022-11-29T12:17:08.592Z,96155.09
2022-11-29T12:21:26.419Z,96155.44
2022-11-29T12:26:03.532Z,96164.03
2022-11-29T12:30:16.422Z,96152.59
2022-11-29T12:34:51.496Z,96157.53
2022-11-29T12:39:10.334Z,96164.69
2022-11-29T12:44:14.815Z,96167.97
2022-11-29T12:48:56.838Z,96161.31
2022-11-29T12:53:33.708Z,96175.44
2022-11-29T12:57:57.916Z,96171.47
2022-11-29T13:02:34.275Z,96180.13
2022-11-29T13:07:17.600Z,96172.78
2022-11-29T13:11:37.106Z,96180.22
2022-11-29T13:16:31.025Z,96176.13
2022-11-29T13:20:53.603Z,96180.38
2022-11-29T13:25:19.015Z,96182.94
2022-11-29T13:29:31.930Z,96178.47
2022-11-29T13:33:47.203Z,96184.94
2022-11-29T13:38:08.987Z,96195.91
2022-11-29T13:42:46.224Z,96197.06
2022-11-29T13:47:08.191Z,96197.16
2022-11-29T13:51:38.431Z,96209.44
2022-11-29T13:56:00.775Z,96204.19
2022-11-29T14:00:31.982Z,96206.03
2022-11-29T14:04:46.980Z,96211.41
2022-11-29T14:09:19.610Z,96213.47
2022-11-29T14:13:44.637Z,96207.31
2022-11-29T14:18:38.746Z,96209.16
2022-11-29T14:23:06.064Z,96210.38
2022-11-29T14:27:21.320Z,96215.84
2022-11-29T14:31:49.325Z,96215.06
2022-11-29T14:36:26.127Z,96220.94
2022-11-29T14:40:41.193Z,96232.41
2022-11-29T14:45:05.503Z,96233.81
2022-11-29T14:49:25.341Z,96242.19
2022-11-29T14:53:39.353Z,96229.78
2022-11-29T14:57:51.971Z,96230.63
2022-11-29T15:02:20.854Z,96242.06
2022-11-29T15:06:38.213Z,96245.09
2022-11-29T15:10:58.378Z,96247.50
2022-11-29T15:15:28.949Z,96248.25
2022-11-29T15:20:13.603Z,96246.38
2022-11-29T15:24:28.764Z,96247.25
2022-11-29T15:28:42.481Z,96251.53
2022-11-29T15:32:55.107Z,96247.50
2022-11-29T15:37:07.481Z,96250.09
2022-11-29T15:41:30.904Z,96255.41
2022-11-29T15:45:57.516Z,96263.34
2022-11-29T15:50:26.429Z,96272.34
2022-11-29T15:54:46.532Z,96283.88
2022-11-29T15:59:33.910Z,96279.50
2022-11-29T16:03:47.865Z,96289.19
2022-11-29T16:08:17.950Z,96280.47
2022-11-29T16:13:03.091Z,96274.81
2022-11-29T16:17:16.125Z,96288.59
2022-11-29T16:21:29.862Z,96285.19
2022-11-29T16:25:55.631Z,96285.16
2022-11-29T16:30:08.830Z,96287.47
2022-11-29T16:34:31.427Z,96292.47
2022-11-29T16:38:50.063Z,96291.84
2022-11-29T16:43:07.265Z,96291.31
2022-11-29T16:47:23.552Z,96291.75
2022-11-29T16:51:56.078Z,96284.47
2022-11-29T16:56:13.214Z,96287.41
2022-11-29T17:00:32.356Z,96301.25
2022-11-29T17:04:45.170Z,96301.44
2022-11-29T17:09:00.172Z,96293.28
2022-11-29T17:13:12.983Z,96295.44
2022-11-29T17:17:25.265Z,96301.09
2022-11-29T17:21:37.679Z,96301.50
2022-11-29T17:25:59.800Z,96303.72
2022-11-29T17:30:12.629Z,96298.78
2022-11-29T17:34:25.096Z,96310.06
2022-11-29T17:38:37.700Z,96313.25
2022-11-29T17:42:49.995Z,96321.47
2022-11-29T17:47:02.367Z,96313.22
2022-11-29T17:51:43.614Z,96327.41
2022-11-29T17:55:49.057Z,96323.66
2022-11-29T18:00:01.367Z,96335.22
2022-11-29T18:04:13.711Z,96342.16
2022-11-29T18:08:26.002Z,96330.16
2022-11-29T18:12:38.322Z,96344.91
2022-11-29T18:16:51.132Z,96341.69
2022-11-29T18:21:06.046Z,96351.78
2022-11-29T18:25:38.173Z,96343.25
2022-11-29T18:29:57.586Z,96354.59
2022-11-29T18:34:11.942Z,96357.28
2022-11-29T18:38:24.203Z,96352.78
2022-11-29T18:42:36.478Z,96358.13
2022-11-29T18:46:49.175Z,96367.09
2022-11-29T18:51:10.491Z,96360.50
2022-11-29T18:55:33.198Z,96371.75
2022-11-29T18:59:45.531Z,96357.38
2022-11-29T19:04:00.102Z,96362.69
2022-11-29T19:08:12.538Z,96366.84
2022-11-29T19:12:24.814Z,96369.50
2022-11-29T19:16:37.130Z,96366.75
2022-11-29T19:20:49.708Z,96370.28
2022-11-29T19:25:01.991Z,96381.44
2022-11-29T19:29:14.916Z,96370.19
2022-11-29T19:33:27.262Z,96379.06
2022-11-29T19:37:39.579Z,96365.78
2022-11-29T19:41:51.820Z,96379.53
2022-11-29T19:46:15.332Z,96393.56
2022-11-29T19:50:27.706Z,96398.56
2022-11-29T19:54:39.949Z,96391.19
2022-11-29T19:58:53.133Z,96385.78
2022-11-29T20:03:05.470Z,96392.34
2022-11-29T20:07:17.783Z,96397.44
2022-11-29T20:11:30.735Z,96397.19
2022-11-29T20:15:43.058Z,96393.25
2022-11-29T20:19:55.429Z,96391.94
2022-11-29T20:24:08.571Z,96408.75
2022-11-29T20:28:20.848Z,96402.06
2022-11-29T20:32:33.282Z,96411.28
2022-11-29T20:36:51.779Z,96418.94
2022-11-29T20:41:12.452Z,96432.81
2022-11-29T20:45:26.210Z,96415.97
2022-11-29T20:49:38.672Z,96425.41
2022-11-29T20:53:51.002Z,96414.47
2022-11-29T20:58:03.277Z,96422.06
2022-11-29T21:02:15.593Z,96425.88
2022-11-29T21:06:27.961Z,96427.56
2022-11-29T21:10:40.712Z,96432.88
2022-11-29T21:14:53.273Z,96428.47
2022-11-29T21:19:06.053Z,96438.25
2022-11-29T21:23:33.988Z,96433.91
2022-11-29T21:27:57.332Z,96435.94
2022-11-29T21:32:21.835Z,96434.84
2022-11-29T21:36:34.144Z,96435.53
2022-11-29T21:40:46.511Z,96428.91
2022-11-29T21:45:13.414Z,96438.16
2022-11-29T21:49:28.384Z,96445.00
2022-11-29T21:53:41.531Z,96442.66
2022-11-29T21:57:53.861Z,96444.16
2022-11-29T22:02:06.487Z,96438.72
2022-11-29T22:06:21.180Z,96450.22
2022-11-29T22:10:33.663Z,96445.50
2022-11-29T22:14:46.324Z,96446.97
2022-11-29T22:18:58.843Z,96436.91
2022-11-29T22:23:11.530Z,96435.41
2022-11-29T22:27:23.814Z,96444.50
2022-11-29T22:31:37.124Z,96442.19
2022-11-29T22:35:49.422Z,96430.53
2022-11-29T22:40:01.678Z,96432.78
2022-11-29T22:44:13.958Z,96437.13
2022-11-29T22:48:26.227Z,96442.91
2022-11-29T22:52:38.555Z,96442.19
2022-11-29T22:56:51.018Z,96436.25
2022-11-29T23:01:08.360Z,96431.91
2022-11-29T23:05:20.707Z,96426.97
2022-11-29T23:09:32.981Z,96432.09
2022-11-29T23:13:46.140Z,96432.94
2022-11-29T23:17:58.468Z,96419.94
2022-11-29T23:22:10.770Z,96439.38
2022-11-29T23:26:24.705Z,96436.44
2022-11-29T23:30:37.097Z,96432.06
2022-11-29T23:34:49.424Z,96435.78
2022-11-29T23:39:01.839Z,96428.00
2022-11-29T23:43:22.446Z,96437.91
2022-11-29T23:47:34.712Z,96445.31
2022-11-29T23:51:46.993Z,96428.75
2022-11-29T23:56:08.358Z,96440.44
